createdAt,value
2022-08-03T00:04:23.263Z,101292.78
2022-08-03T00:12:09.944Z,101289.19
2022-08-03T00:19:43.550Z,101283.81
2022-08-03T00:27:18.550Z,101281.94
2022-08-03T00:34:57.826Z,101274.75
2022-08-03T00:42:34.078Z,101263.09
2022-08-03T00:50:08.061Z,101267.63
2022-08-03T00:57:43.202Z,101255.03
2022-08-03T01:05:16.795Z,101252.34
2022-08-03T01:12:57.735Z,101249.66
2022-08-03T01:20:33.868Z,101254.22
2022-08-03T01:28:15.227Z,101252.44
2022-08-03T01:35:54.547Z,101232.59
2022-08-03T01:43:55.464Z,101239.81
2022-08-03T01:51:25.218Z,101237.09
2022-08-03T01:59:20.690Z,101242.53
2022-08-03T02:07:02.153Z,101228.09
2022-08-03T02:14:37.059Z,101234.44
2022-08-03T02:22:12.973Z,101232.69
2022-08-03T02:29:48.171Z,101235.38
2022-08-03T02:37:25.282Z,101236.31
2022-08-03T02:45:00.247Z,101231.84
2022-08-03T02:52:36.603Z,101232.81
2022-08-03T03:00:10.808Z,101245.47
2022-08-03T03:07:52.087Z,101236.47
2022-08-03T03:15:27.488Z,101239.22
2022-08-03T03:23:03.584Z,101242.84
2022-08-03T03:30:37.387Z,101234.72
2022-08-03T03:38:12.448Z,101237.47
2022-08-03T03:45:46.867Z,101236.66
2022-08-03T03:53:21.805Z,101235.81
2022-08-03T04:00:55.416Z,101234.03
2022-08-03T04:08:48.018Z,101225.00
2022-08-03T04:16:25.140Z,101227.69
2022-08-03T04:24:03.063Z,101240.28
2022-08-03T04:31:37.957Z,101239.38
2022-08-03T04:39:15.407Z,101248.38
2022-08-03T04:46:52.549Z,101251.94
2022-08-03T04:54:27.854Z,101250.13
2022-08-03T05:02:01.647Z,101259.91
2022-08-03T05:09:50.245Z,101253.44
2022-08-03T05:17:26.626Z,101263.19
2022-08-03T05:25:01.745Z,101268.41
2022-08-03T05:32:35.286Z,101264.56
2022-08-03T05:40:10.994Z,101261.44
2022-08-03T05:47:44.648Z,101268.09
2022-08-03T05:55:19.751Z,101271.34
2022-08-03T06:02:53.397Z,101268.81
2022-08-03T06:10:36.858Z,101277.44
2022-08-03T06:18:11.679Z,101275.22
2022-08-03T06:25:46.807Z,101271.72
2022-08-03T06:33:20.370Z,101270.28
2022-08-03T06:40:55.287Z,101275.00
2022-08-03T06:48:29.138Z,101271.66
2022-08-03T06:56:05.420Z,101270.00
2022-08-03T07:03:47.573Z,101266.16
2022-08-03T07:11:28.620Z,101262.75
2022-08-03T07:19:02.192Z,101255.81
2022-08-03T07:26:37.179Z,101257.66
2022-08-03T07:34:10.796Z,101258.00
2022-08-03T07:41:46.106Z,101262.25
2022-08-03T07:49:19.755Z,101256.75
2022-08-03T07:56:54.783Z,101264.09
2022-08-03T08:04:28.381Z,101253.97
2022-08-03T08:12:03.550Z,101259.75
2022-08-03T08:19:51.557Z,101261.34
2022-08-03T08:27:26.862Z,101264.81
2022-08-03T08:35:00.669Z,101260.97
2022-08-03T08:42:35.857Z,101250.22
2022-08-03T08:50:21.575Z,101261.13
2022-08-03T08:58:06.299Z,101251.91
2022-08-03T09:05:55.457Z,101251.72
2022-08-03T09:13:31.484Z,101240.56
2022-08-03T09:21:30.094Z,101234.41
2022-08-03T09:29:13.236Z,101235.94
2022-08-03T09:36:48.906Z,101238.31
2022-08-03T09:44:34.653Z,101227.25
2022-08-03T09:52:32.782Z,101228.56
2022-08-03T10:00:13.429Z,101225.78
2022-08-03T10:07:48.104Z,101213.16
2022-08-03T10:16:24.078Z,101210.47
2022-08-03T10:23:17.974Z,101209.16
2022-08-03T10:30:56.076Z,101201.66
2022-08-03T10:38:30.943Z,101193.53
2022-08-03T10:46:08.061Z,101196.44
2022-08-03T10:53:44.188Z,101188.84
2022-08-03T11:01:59.189Z,101171.25
2022-08-03T11:09:43.232Z,101170.88
2022-08-03T11:17:17.314Z,101170.94
2022-08-03T11:25:02.189Z,101165.16
2022-08-03T11:32:56.240Z,101162.66
2022-08-03T11:40:38.810Z,101159.03
2022-08-03T11:48:15.089Z,101159.28
2022-08-03T11:55:49.989Z,101156.88
2022-08-03T12:03:23.971Z,101146.31
2022-08-03T12:11:00.439Z,101141.50
2022-08-03T12:18:34.167Z,101146.38
2022-08-03T12:26:10.938Z,101139.84
2022-08-03T12:33:58.915Z,101127.41
2022-08-03T12:41:35.302Z,101123.13
2022-08-03T12:49:11.184Z,101114.53
2022-08-03T12:56:59.388Z,101102.94
2022-08-03T13:04:33.797Z,101101.63
2022-08-03T13:12:10.658Z,101102.50
2022-08-03T13:19:44.621Z,101098.81
2022-08-03T13:28:03.508Z,101086.25
2022-08-03T13:35:16.603Z,101088.25
2022-08-03T13:42:51.703Z,101090.91
2022-08-03T13:50:25.365Z,101083.25
2022-08-03T13:58:03.905Z,101076.28
2022-08-03T14:05:40.862Z,101056.28
2022-08-03T14:13:16.812Z,101048.28
2022-08-03T14:20:56.344Z,101043.09
2022-08-03T14:28:32.601Z,101041.34
2022-08-03T14:36:06.501Z,101045.53
2022-08-03T14:43:41.472Z,101046.19
2022-08-03T14:51:35.075Z,101047.66
2022-08-03T14:59:10.050Z,101030.78
2022-08-03T15:06:43.784Z,101034.72
2022-08-03T15:14:32.303Z,101024.50
2022-08-03T15:22:08.338Z,101019.94
2022-08-03T15:30:06.852Z,101015.81
2022-08-03T15:37:37.744Z,101010.81
2022-08-03T15:45:13.391Z,101012.38
2022-08-03T15:52:51.537Z,101006.44
2022-08-03T16:00:33.456Z,101006.50
2022-08-03T16:08:11.792Z,101000.16
2022-08-03T16:15:48.765Z,100998.69
2022-08-03T16:23:22.387Z,100991.72
2022-08-03T16:30:57.338Z,100992.63
2022-08-03T16:38:31.389Z,100986.13
2022-08-03T16:46:06.293Z,100986.63
2022-08-03T16:54:05.464Z,100992.88
2022-08-03T17:01:37.649Z,100997.41
2022-08-03T17:09:12.741Z,100990.50
2022-08-03T17:16:52.088Z,100999.03
2022-08-03T17:24:29.229Z,101005.13
2022-08-03T17:32:09.517Z,101004.56
2022-08-03T17:40:00.418Z,100999.31
2022-08-03T17:47:43.289Z,101005.53
2022-08-03T17:55:57.042Z,101010.97
2022-08-03T18:03:20.555Z,101007.44
2022-08-03T18:10:57.103Z,101020.84
2022-08-03T18:18:40.468Z,101020.69
2022-08-03T18:26:17.512Z,101016.03
2022-08-03T18:34:32.534Z,101011.97
2022-08-03T18:41:46.837Z,101025.84
2022-08-03T18:49:29.478Z,101020.53
2022-08-03T18:57:03.230Z,101030.41
2022-08-03T19:04:41.210Z,101033.06
2022-08-03T19:12:30.561Z,101036.75
2022-08-03T19:20:10.289Z,101025.69
2022-08-03T19:27:45.176Z,101043.78
2022-08-03T19:35:51.560Z,101050.59
2022-08-03T19:43:18.744Z,101047.53
2022-08-03T19:50:54.307Z,101041.34
2022-08-03T19:58:31.752Z,101038.13
2022-08-03T20:06:07.158Z,101038.50
2022-08-03T20:13:40.941Z,101027.66
2022-08-03T20:21:18.877Z,101027.72
2022-08-03T20:28:54.272Z,101034.41
2022-08-03T20:36:29.290Z,101030.22
2022-08-03T20:44:04.495Z,101029.31
2022-08-03T20:51:50.395Z,101028.56
2022-08-03T20:59:34.835Z,101036.78
2022-08-03T21:07:23.524Z,101035.25
2022-08-03T21:15:00.141Z,101034.31
2022-08-03T21:22:37.537Z,101036.69
2022-08-03T21:30:11.943Z,101037.44
2022-08-03T21:37:47.584Z,101034.38
2022-08-03T21:45:21.322Z,101034.19
2022-08-03T21:52:57.610Z,101021.25
2022-08-03T22:00:31.502Z,101037.19
2022-08-03T22:08:06.649Z,101035.94
2022-08-03T22:15:40.315Z,101041.84
2022-08-03T22:23:19.625Z,101045.53
2022-08-03T22:30:54.966Z,101040.41
2022-08-03T22:38:30.570Z,101047.16
2022-08-03T22:46:10.540Z,101051.22
2022-08-03T22:53:47.565Z,101049.81
2022-08-03T23:01:24.202Z,101056.56
2022-08-03T23:08:59.459Z,101053.31
2022-08-03T23:16:38.234Z,101051.84
2022-08-03T23:24:25.552Z,101053.03
2022-08-03T23:32:03.987Z,101049.72
2022-08-03T23:39:39.970Z,101048.44
2022-08-03T23:47:13.704Z,101053.25
2022-08-03T23:54:58.301Z,101051.59
